Time;durP1;ratioP1;P1;durP2;ratioP2;P2;SDS_P1;SDS_P2;PMS_P1;PMS_P2;Temp;Humidity;BMP_temperature;BMP_pressure;BME280_temperature;BME280_humidity;BME280_pressure;Samples;Min_cycle;Max_cycle;Signal;HPM_P1;HPM_P2
2021/10/27 00:00:11;;;;;;;9.30;6.67;;;;;;;13.81;72.50;100957.00;5047491;28;20053;-78
2021/10/27 00:02:39;;;;;;;9.52;6.63;;;;;;;13.92;72.00;100960.31;5047878;28;20418;-79
2021/10/27 00:05:07;;;;;;;11.27;6.88;;;;;;;13.98;71.69;100962.69;5035852;28;20053;-78
2021/10/27 00:07:35;;;;;;;7.55;6.13;;;;;;;13.96;71.77;100964.97;5035826;28;20053;-78
2021/10/27 00:10:02;;;;;;;8.25;7.38;;;;;;;13.84;72.06;100969.53;5050446;28;20052;-79
2021/10/27 00:12:29;;;;;;;8.30;6.85;;;;;;;13.92;72.42;100975.19;5055377;28;20057;-78
2021/10/27 00:14:59;;;;;;;7.75;6.85;;;;;;;13.93;72.23;100970.41;5054987;28;20478;-78
2021/10/27 00:17:26;;;;;;;9.27;6.88;;;;;;;13.96;72.25;100966.94;5054613;28;20056;-79
2021/10/27 00:19:53;;;;;;;8.98;7.40;;;;;;;13.93;72.51;100976.81;5049987;28;20053;-79
2021/10/27 00:22:21;;;;;;;8.25;6.60;;;;;;;13.91;72.71;100981.09;5035091;28;20045;-79
2021/10/27 00:24:49;;;;;;;7.68;5.90;;;;;;;14.01;72.35;100967.63;5048020;28;20053;-78
2021/10/27 00:27:16;;;;;;;8.32;6.18;;;;;;;14.08;71.96;100977.53;5055021;28;20414;-78
2021/10/27 00:29:44;;;;;;;9.77;6.70;;;;;;;13.99;72.31;100966.28;5055415;28;20453;-78
2021/10/27 00:32:13;;;;;;;7.28;5.95;;;;;;;14.10;72.05;100972.41;5041459;28;20053;-79
2021/10/27 00:34:40;;;;;;;7.77;6.00;;;;;;;13.96;72.73;100970.59;5052783;28;20049;-78
2021/10/27 00:37:07;;;;;;;6.95;5.70;;;;;;;14.06;72.24;100977.03;5043410;28;20045;-79
2021/10/27 00:39:36;;;;;;;6.68;5.40;;;;;;;14.11;72.12;100971.25;5055066;28;20427;-78
2021/10/27 00:42:04;;;;;;;7.57;5.57;;;;;;;14.16;72.26;100963.53;5039500;28;20061;-78
2021/10/27 00:44:33;;;;;;;7.13;5.17;;;;;;;14.21;72.15;100969.00;5034726;28;20060;-78
2021/10/27 00:47:01;;;;;;;6.97;5.63;;;;;;;14.23;72.04;100970.63;5034710;28;20049;-78
2021/10/27 00:49:32;;;;;;;8.68;5.45;;;;;;;14.18;72.04;100969.63;5044283;28;20049;-78
2021/10/27 00:52:00;;;;;;;7.82;5.55;;;;;;;14.22;71.62;100969.81;5072456;28;20056;-79
2021/10/27 00:54:29;;;;;;;6.10;5.50;;;;;;;14.24;71.86;100961.91;5057113;28;20401;-78
2021/10/27 00:56:59;;;;;;;9.70;6.28;;;;;;;14.13;72.64;100964.19;5054306;28;20053;-78
2021/10/27 00:59:26;;;;;;;;;;;;;;;14.10;72.38;100967.63;5054399;28;20064;-78
2021/10/27 01:01:54;;;;;;;6.97;6.20;;;;;;;14.12;72.16;100972.91;5054525;28;19928;-79
2021/10/27 01:04:22;;;;;;;7.20;6.15;;;;;;;14.21;72.23;100960.59;5052610;28;20048;-79
2021/10/27 01:06:51;;;;;;;7.72;5.72;;;;;;;14.25;72.02;100966.34;5054004;28;20124;-78
2021/10/27 01:09:19;;;;;;;6.47;5.75;;;;;;;14.30;71.88;100965.34;5054099;28;20048;-79
2021/10/27 01:11:48;;;;;;;7.07;5.72;;;;;;;14.27;71.85;100960.41;5053965;28;20049;-78
2021/10/27 01:14:16;;;;;;;7.40;6.13;;;;;;;14.24;71.94;100958.25;5053393;28;20065;-78
2021/10/27 01:16:45;;;;;;;7.25;6.30;;;;;;;14.30;71.84;100952.19;5053908;28;20076;-79
2021/10/27 01:19:13;;;;;;;7.47;6.45;;;;;;;14.27;71.71;100943.59;5053930;28;20123;-78
2021/10/27 01:21:42;;;;;;;7.78;6.47;;;;;;;14.33;71.54;100948.72;5053678;28;20057;-78
2021/10/27 01:24:09;;;;;;;7.22;6.50;;;;;;;14.33;71.69;100951.53;5053716;28;20053;-78
2021/10/27 01:26:37;;;;;;;8.45;6.85;;;;;;;14.23;72.11;100953.81;5053449;28;20053;-78
2021/10/27 01:29:04;;;;;;;9.32;7.25;;;;;;;14.27;71.75;100952.81;5053664;28;20053;-78
2021/10/27 01:31:32;;;;;;;8.02;7.22;;;;;;;14.39;71.54;100955.00;5053507;28;20132;-78
2021/10/27 01:34:00;;;;;;;7.45;6.68;;;;;;;14.40;71.30;100951.88;5052541;28;20064;-78
2021/10/27 01:36:29;;;;;;;9.35;7.18;;;;;;;14.34;71.49;100949.53;5053344;28;20056;-78
2021/10/27 01:38:58;;;;;;;9.13;6.78;;;;;;;14.41;71.40;100952.69;5053931;28;20065;-78
2021/10/27 01:41:27;;;;;;;8.60;6.55;;;;;;;14.46;71.37;100960.09;5053212;28;20495;-78
2021/10/27 01:43:57;;;;;;;7.63;6.60;;;;;;;14.54;70.93;100946.09;5053059;28;20069;-78
2021/10/27 01:46:29;;;;;;;8.00;6.05;;;;;;;14.57;70.44;100939.03;5049127;28;20163;-78
2021/10/27 01:48:57;;;;;;;8.57;6.28;;;;;;;14.50;70.68;100947.91;5033514;28;20057;-78
2021/10/27 01:51:25;;;;;;;8.85;6.70;;;;;;;14.55;70.68;100946.91;5047114;28;20057;-78
2021/10/27 01:53:52;;;;;;;8.88;7.10;;;;;;;14.52;70.99;100942.78;5040893;28;20419;-78
2021/10/27 01:56:23;;;;;;;8.15;6.38;;;;;;;14.57;70.93;100944.63;5053124;28;20053;-78
2021/10/27 01:58:51;;;;;;;9.07;6.47;;;;;;;14.59;70.78;100940.38;5053744;28;20167;-78
2021/10/27 02:01:19;;;;;;;10.13;7.53;;;;;;;14.49;70.72;100937.84;5049163;28;20052;-78
2021/10/27 02:03:46;;;;;;;9.70;6.75;;;;;;;14.55;70.77;100939.38;5039174;28;20061;-78
2021/10/27 02:06:14;;;;;;;9.48;7.65;;;;;;;14.59;70.98;100936.72;5040389;28;20056;-78
2021/10/27 02:08:42;;;;;;;9.75;8.02;;;;;;;14.56;70.94;100943.00;5044955;28;20061;-78
2021/10/27 02:11:10;;;;;;;8.63;6.80;;;;;;;14.63;70.61;100943.31;5042395;28;20049;-78
2021/10/27 02:13:38;;;;;;;8.85;7.95;;;;;;;14.47;71.38;100940.16;5041792;28;20041;-78
2021/10/27 02:16:06;;;;;;;9.00;8.10;;;;;;;14.50;71.33;100939.50;5053876;28;20410;-78
2021/10/27 02:18:33;;;;;;;11.13;8.15;;;;;;;14.51;71.25;100929.94;5057375;28;20049;-78
2021/10/27 02:21:00;;;;;;;11.18;7.55;;;;;;;14.57;71.35;100939.88;5056989;28;20417;-78
2021/10/27 02:23:28;;;;;;;9.48;7.78;;;;;;;14.51;71.70;100941.16;5053196;28;20410;-78
2021/10/27 02:25:55;;;;;;;12.32;8.45;;;;;;;14.63;71.11;100948.09;5057223;28;20060;-78
2021/10/27 02:28:22;;;;;;;9.05;7.47;;;;;;;14.54;71.47;100946.09;5056903;28;20057;-78
2021/10/27 02:30:52;;;;;;;9.73;8.27;;;;;;;14.46;71.77;100944.09;5057543;28;20048;-78
2021/10/27 02:33:19;;;;;;;12.45;9.05;;;;;;;14.37;72.13;100941.31;5049182;28;20076;-78
2021/10/27 02:35:46;;;;;;;11.05;8.23;;;;;;;14.39;72.50;100938.19;5037523;28;20049;-78
2021/10/27 02:38:13;;;;;;;10.63;9.45;;;;;;;14.45;71.89;100939.66;5043026;28;20064;-78
2021/10/27 02:40:41;;;;;;;15.55;10.07;;;;;;;14.46;72.08;100932.91;5056192;28;20430;-78
2021/10/27 02:43:08;;;;;;;13.80;9.77;;;;;;;14.47;71.88;100934.56;5056683;28;20505;-78
2021/10/27 02:45:36;;;;;;;12.65;9.55;;;;;;;14.52;71.68;100930.75;5056967;28;20049;-78
2021/10/27 02:48:05;;;;;;;11.70;8.82;;;;;;;14.48;71.66;100924.97;5055435;28;20049;-78
2021/10/27 02:50:32;;;;;;;12.05;9.57;;;;;;;14.47;71.88;100934.56;5045879;28;20049;-78
2021/10/27 02:52:59;;;;;;;12.13;9.57;;;;;;;14.44;71.92;100929.59;5056405;28;20445;-78
2021/10/27 02:55:29;;;;;;;12.88;9.43;;;;;;;14.42;72.26;100931.91;5056008;28;20060;-78
2021/10/27 02:57:57;;;;;;;11.18;8.82;;;;;;;14.47;72.19;100928.09;5051659;28;20418;-78
2021/10/27 03:00:25;;;;;;;12.00;9.10;;;;;;;14.48;71.99;100935.38;5047434;28;20049;-78
2021/10/27 03:02:53;;;;;;;14.73;8.75;;;;;;;14.32;72.64;100926.63;5057013;28;20420;-78
2021/10/27 03:05:22;;;;;;;10.60;8.35;;;;;;;14.47;72.29;100928.09;5046133;28;20052;-78
2021/10/27 03:07:49;;;;;;;12.80;8.45;;;;;;;14.41;72.55;100927.47;5052275;28;20440;-78
2021/10/27 03:10:17;;;;;;;11.05;8.80;;;;;;;14.44;72.73;100921.19;5054468;28;20064;-78
2021/10/27 03:12:44;;;;;;;12.93;8.77;;;;;;;14.44;72.38;100935.19;5036360;28;20053;-78
2021/10/27 03:15:12;;;;;;;12.10;8.48;;;;;;;14.51;72.12;100938.34;5036464;28;20045;-78
2021/10/27 03:17:39;;;;;;;12.77;9.02;;;;;;;14.46;72.38;100943.28;5035856;28;20418;-78
2021/10/27 03:20:08;;;;;;;9.90;8.13;;;;;;;14.48;72.44;100929.78;5036288;28;20053;-78
2021/10/27 03:22:37;;;;;;;9.95;8.60;;;;;;;14.45;72.59;100934.06;5044956;28;20486;-78
2021/10/27 03:25:06;;;;;;;12.43;9.18;;;;;;;14.50;72.68;100942.28;5053576;28;20481;-78
2021/10/27 03:27:33;;;;;;;11.52;9.90;;;;;;;14.57;72.43;100941.81;5055171;28;20067;-78
2021/10/27 03:30:03;;;;;;;12.50;9.13;;;;;;;14.64;72.04;100941.34;5055442;28;20056;-78
2021/10/27 03:32:30;;;;;;;;;;;;;;;14.64;72.25;100942.16;5056006;28;20057;-78
2021/10/27 03:34:58;;;;;;;9.63;8.63;;;;;;;14.47;72.65;100945.78;5046873;28;20386;-78
2021/10/27 03:37:25;;;;;;;15.50;10.02;;;;;;;14.63;72.12;100945.28;5035943;28;20060;-78
2021/10/27 03:39:54;;;;;;;12.80;10.70;;;;;;;14.68;71.99;100956.34;5048233;28;20045;-78
2021/10/27 03:42:21;;;;;;;12.10;9.48;;;;;;;14.68;71.86;100956.34;5048658;28;20052;-78
2021/10/27 03:44:48;;;;;;;12.75;9.68;;;;;;;14.56;72.60;100948.59;5050656;28;20049;-78
2021/10/27 03:47:17;;;;;;;10.82;9.70;;;;;;;14.59;71.92;100948.78;5055529;28;20056;-78
2021/10/27 03:49:44;;;;;;;15.32;10.60;;;;;;;14.56;72.44;100952.22;5051732;28;20052;-78
2021/10/27 03:52:11;;;;;;;14.00;10.20;;;;;;;14.62;72.19;100952.88;5046296;28;20426;-78
2021/10/27 03:54:39;;;;;;;12.27;9.48;;;;;;;14.80;71.50;100953.69;5054561;28;20076;-78
2021/10/27 03:57:07;;;;;;;10.98;8.88;;;;;;;14.74;71.52;100950.25;5055180;28;20052;-78
2021/10/27 03:59:35;;;;;;;14.52;10.10;;;;;;;14.77;71.58;100959.97;5055126;28;20501;-78
2021/10/27 04:02:03;;;;;;;14.10;10.48;;;;;;;14.71;72.04;100961.28;5051321;28;20078;-78
2021/10/27 04:04:31;;;;;;;13.43;9.18;;;;;;;14.78;71.56;100956.84;5043281;28;20065;-78
2021/10/27 04:06:59;;;;;;;10.85;7.95;;;;;;;14.69;71.74;100950.41;5035848;28;20064;-79
2021/10/27 04:09:26;;;;;;;12.43;8.93;;;;;;;14.72;71.63;100954.50;5042219;28;20064;-78
2021/10/27 04:11:56;;;;;;;12.98;9.15;;;;;;;14.79;71.35;100955.69;5048321;28;20050;-79
2021/10/27 04:14:25;;;;;;;12.98;8.95;;;;;;;14.65;71.45;100957.81;5036694;28;20049;-79
2021/10/27 04:16:52;;;;;;;13.25;8.20;;;;;;;14.73;71.35;100954.19;5046505;28;20053;-79
2021/10/27 04:19:20;;;;;;;11.90;8.13;;;;;;;14.61;71.58;100957.69;5052524;28;20497;-79
2021/10/27 04:21:47;;;;;;;11.70;8.70;;;;;;;14.59;71.64;100953.53;5050009;28;20406;-78
2021/10/27 04:24:15;;;;;;;10.35;7.25;;;;;;;14.63;71.35;100953.72;5044245;28;20049;-79
2021/10/27 04:26:42;;;;;;;11.95;7.80;;;;;;;14.58;71.31;100949.09;5035391;28;20049;-79
2021/10/27 04:29:09;;;;;;;12.20;7.22;;;;;;;14.50;71.56;100955.50;5035247;28;20046;-79
2021/10/27 04:31:38;;;;;;;7.95;7.15;;;;;;;14.51;71.64;100957.13;5036104;28;20053;-79
2021/10/27 04:34:06;;;;;;;11.18;7.95;;;;;;;14.63;71.41;100964.91;5041343;28;20045;-79
2021/10/27 04:36:33;;;;;;;8.75;7.35;;;;;;;14.63;71.30;100960.13;5054743;28;20049;-79
2021/10/27 04:39:01;;;;;;;12.90;8.48;;;;;;;14.72;70.83;100954.50;5054592;28;20049;-79
2021/10/27 04:41:28;;;;;;;10.00;6.97;;;;;;;14.74;70.63;100960.63;5049949;28;20048;-79
2021/10/27 04:43:56;;;;;;;8.70;6.68;;;;;;;14.65;70.83;100963.44;5046938;28;20052;-78
2021/10/27 04:46:23;;;;;;;8.73;6.78;;;;;;;14.69;70.54;100958.00;5055033;28;20410;-78
2021/10/27 04:48:52;;;;;;;8.82;6.20;;;;;;;14.63;70.64;100954.53;5045711;28;20049;-79
2021/10/27 04:51:21;;;;;;;9.90;6.77;;;;;;;14.72;70.46;100960.13;5050766;28;20413;-79
2021/10/27 04:53:48;;;;;;;10.68;7.10;;;;;;;14.59;70.58;100948.78;5053950;28;20505;-79
2021/10/27 04:56:16;;;;;;;9.70;6.72;;;;;;;14.68;70.70;100945.97;5053860;28;20049;-79
2021/10/27 04:58:46;;;;;;;8.50;5.55;;;;;;;14.73;70.19;100937.38;5053791;28;20501;-78
2021/10/27 05:01:14;;;;;;;9.52;6.38;;;;;;;14.72;70.04;100935.72;5052812;28;20057;-78
2021/10/27 05:03:41;;;;;;;9.75;6.20;;;;;;;14.74;70.21;100941.84;5042834;28;20418;-79
2021/10/27 05:06:10;;;;;;;11.00;6.93;;;;;;;14.80;69.99;100948.09;5054405;28;20049;-79
2021/10/27 05:08:37;;;;;;;9.18;6.50;;;;;;;14.68;70.07;100950.72;5054121;28;20057;-79
2021/10/27 05:11:05;;;;;;;10.27;7.47;;;;;;;14.78;70.12;100945.63;5051079;28;20403;-79
2021/10/27 05:13:32;;;;;;;6.68;4.55;;;;;;;14.84;69.59;100948.25;5051191;28;20049;-78
2021/10/27 05:16:00;;;;;;;8.40;4.55;;;;;;;14.91;69.42;100945.75;5047411;28;20064;-78
2021/10/27 05:18:27;;;;;;;7.65;4.43;;;;;;;14.95;68.92;100941.97;5042803;28;20064;-78
2021/10/27 05:20:55;;;;;;;7.82;4.18;;;;;;;15.01;68.61;100949.06;5050147;28;20053;-78
2021/10/27 05:23:24;;;;;;;6.78;4.60;;;;;;;15.01;68.67;100954.66;5056422;28;20474;-79
2021/10/27 05:25:51;;;;;;;8.50;4.07;;;;;;;15.06;68.58;100956.47;5045284;28;20048;-78
2021/10/27 05:28:18;;;;;;;4.72;3.33;;;;;;;14.96;68.50;100963.25;5046339;28;20463;-79
2021/10/27 05:30:47;;;;;;;6.20;3.60;;;;;;;14.98;68.77;100962.91;5050135;28;20071;-78
2021/10/27 05:33:15;;;;;;;6.38;3.67;;;;;;;15.00;68.78;100961.44;5033796;28;20056;-78
2021/10/27 05:35:42;;;;;;;9.20;3.47;;;;;;;15.11;68.61;100967.50;5053371;28;20470;-78
2021/10/27 05:38:10;;;;;;;6.28;3.40;;;;;;;15.07;68.57;100957.28;5052709;28;20053;-78
2021/10/27 05:40:39;;;;;;;6.85;4.32;;;;;;;15.10;68.27;100956.59;5051807;28;20410;-78
2021/10/27 05:43:11;;;;;;;7.03;3.97;;;;;;;15.01;68.28;100965.91;5040389;28;20413;-79
2021/10/27 05:45:39;;;;;;;4.85;3.53;;;;;;;15.02;68.48;100964.72;5040579;28;20487;-78
2021/10/27 05:48:08;;;;;;;6.00;3.85;;;;;;;14.96;68.60;100968.84;5051619;28;20048;-78
2021/10/27 05:50:38;;;;;;;7.65;3.40;;;;;;;14.96;68.44;100968.84;5053300;28;20057;-78
2021/10/27 05:55:52;;;;;;;6.25;3.90;;;;;;;14.82;68.93;100966.25;5055820;28;20059;-78
2021/10/27 05:58:19;;;;;;;6.00;3.93;;;;;;;14.80;69.65;100967.72;5048841;28;20053;-78
2021/10/27 06:00:47;;;;;;;6.85;4.10;;;;;;;14.83;68.74;100964.25;5052680;28;20832;-78
2021/10/27 06:03:14;;;;;;;5.72;3.90;;;;;;;14.72;69.26;100974.16;5054263;28;20045;-80
2021/10/27 06:05:42;;;;;;;5.78;3.97;;;;;;;14.61;69.77;100974.50;5053284;28;20053;-78
2021/10/27 06:08:10;;;;;;;7.88;4.10;;;;;;;14.67;69.51;100979.94;5053686;28;20486;-78
2021/10/27 06:10:37;;;;;;;7.35;4.53;;;;;;;14.77;69.14;100988.84;5047214;28;20045;-78
2021/10/27 06:13:07;;;;;;;7.38;3.95;;;;;;;14.73;69.48;100993.44;5047186;28;20053;-78
2021/10/27 06:15:35;;;;;;;7.93;3.85;;;;;;;14.79;68.98;100997.75;5051964;28;20045;-79
2021/10/27 06:18:03;;;;;;;6.85;4.10;;;;;;;14.82;69.04;101001.84;5049336;28;20413;-78
2021/10/27 06:20:31;;;;;;;6.70;3.70;;;;;;;14.78;68.89;101000.88;5048167;28;20049;-77
2021/10/27 06:22:58;;;;;;;5.60;3.70;;;;;;;14.70;69.31;100996.94;5049880;28;20056;-78
2021/10/27 06:25:27;;;;;;;7.07;4.22;;;;;;;14.74;69.11;100997.06;5047240;28;20057;-78
2021/10/27 06:28:01;;;;;;;5.40;3.53;;;;;;;14.68;69.13;101001.19;5035917;28;20049;-78
2021/10/27 06:30:40;;;;;;;5.30;3.53;;;;;;;14.76;68.86;101000.38;5049395;28;20491;-77
2021/10/27 06:33:19;;;;;;;;;;;;;;;14.73;68.69;101010.28;5040892;28;20049;-78
2021/10/27 06:35:52;;;;;;;5.45;3.20;;;;;;;14.71;68.99;101000.56;5045429;28;20294;-77
2021/10/27 06:38:29;;;;;;;6.70;3.60;;;;;;;14.70;68.93;101019.38;5050934;28;20071;-80
2021/10/27 06:46:36;;;;;;;5.97;3.45;;;;;;;14.69;68.80;101008.47;5057356;28;20072;-78
2021/10/27 06:49:03;;;;;;;7.95;3.55;;;;;;;14.79;68.54;101019.38;5045771;28;20511;-79
2021/10/27 06:51:31;;;;;;;3.67;2.63;;;;;;;14.77;68.40;101005.66;5039989;28;20053;-78
2021/10/27 06:53:58;;;;;;;7.70;3.30;;;;;;;14.71;68.57;101017.38;5042685;28;20058;-82
2021/10/27 06:56:26;;;;;;;4.93;2.85;;;;;;;14.82;68.00;101013.06;5055281;28;20045;-82
2021/10/27 06:58:59;;;;;;;6.13;3.30;;;;;;;14.86;68.06;101008.47;5060517;28;20058;-81
2021/10/27 07:01:34;;;;;;;6.30;3.63;;;;;;;14.90;67.85;101012.25;5052916;28;20060;-81
2021/10/27 07:04:28;;;;;;;5.90;3.58;;;;;;;14.89;67.91;101023.78;5043451;28;20430;-84
2021/10/27 07:07:08;;;;;;;3.95;3.30;;;;;;;14.82;68.03;101021.50;5056865;28;20064;-82
2021/10/27 07:15:16;;;;;;;4.03;3.58;;;;;;;14.85;67.86;101034.88;5046032;28;20055;-82
2021/10/27 07:17:50;;;;;;;5.45;3.63;;;;;;;14.81;68.01;101029.09;5050209;28;20064;-80
2021/10/27 07:20:28;;;;;;;6.18;3.30;;;;;;;14.87;67.79;101038.16;5039411;28;20060;-82
2021/10/27 07:22:59;;;;;;;6.43;2.45;;;;;;;14.94;67.36;101032.88;5060271;28;20052;-83
2021/10/27 07:25:27;;;;;;;7.65;3.15;;;;;;;14.91;67.57;101038.31;5051588;28;20076;-81
2021/10/27 07:27:54;;;;;;;6.22;3.85;;;;;;;15.00;67.13;101039.97;5059214;28;20075;-81
2021/10/27 07:30:22;;;;;;;4.32;3.00;;;;;;;15.06;66.67;101045.44;5055943;28;20049;-81
2021/10/27 07:32:55;;;;;;;6.60;3.15;;;;;;;14.95;66.95;101040.16;5055281;28;20053;-82
2021/10/27 07:35:30;;;;;;;5.65;3.13;;;;;;;15.12;66.75;101046.88;5050503;28;20061;-83
2021/10/27 07:40:46;;;;;;;6.15;3.00;;;;;;;15.31;66.15;101044.56;5054671;28;20056;-78
2021/10/27 07:43:18;;;;;;;9.15;4.30;;;;;;;15.37;65.95;101046.06;5042155;28;20064;-82
2021/10/27 07:45:47;;;;;;;5.47;2.60;;;;;;;15.39;65.34;101046.56;5050330;28;20056;-85
2021/10/27 07:48:17;;;;;;;5.13;2.70;;;;;;;15.28;65.71;101045.22;5051906;28;20052;-80
2021/10/27 07:50:44;;;;;;;3.03;2.42;;;;;;;15.33;65.43;101045.06;5052873;28;20041;-81
2021/10/27 07:53:13;;;;;;;4.15;2.60;;;;;;;15.40;65.13;101047.38;5052566;28;20075;-81
2021/10/27 07:55:44;;;;;;;6.22;3.20;;;;;;;15.37;65.69;101045.22;5053047;28;20474;-82
2021/10/27 07:58:12;;;;;;;5.68;2.92;;;;;;;15.41;65.54;101041.44;5054182;28;20072;-80
2021/10/27 08:00:40;;;;;;;5.95;2.83;;;;;;;15.31;65.76;101046.56;5047967;28;20045;-79
2021/10/27 08:03:08;;;;;;;3.88;2.60;;;;;;;15.34;65.45;101054.31;5044349;28;20410;-81
2021/10/27 08:05:40;;;;;;;4.55;2.50;;;;;;;15.16;66.02;101062.75;5050948;28;20041;-81
2021/10/27 08:08:08;;;;;;;3.90;2.33;;;;;;;15.00;66.35;101056.00;5052068;28;20052;-83
2021/10/27 08:10:38;;;;;;;4.25;2.80;;;;;;;15.10;66.36;101054.81;5054610;28;20041;-82
2021/10/27 08:13:09;;;;;;;5.07;2.80;;;;;;;15.14;66.60;101061.41;5054597;28;20056;-84
2021/10/27 08:15:37;;;;;;;4.13;2.50;;;;;;;15.15;66.34;101058.28;5037621;28;20050;-81
2021/10/27 08:18:10;;;;;;;4.07;2.40;;;;;;;15.18;66.27;101066.06;5055586;28;20056;-82
2021/10/27 08:20:39;;;;;;;4.13;2.60;;;;;;;15.33;65.72;101075.09;5050559;28;20049;-82
2021/10/27 08:23:08;;;;;;;3.65;2.75;;;;;;;15.25;65.73;101079.59;5045542;28;20431;-81
2021/10/27 08:25:40;;;;;;;3.67;2.80;;;;;;;15.31;65.44;101069.84;5041491;28;20045;-82
2021/10/27 08:28:10;;;;;;;4.97;2.63;;;;;;;15.18;65.90;101060.44;5050053;28;20052;-83
2021/10/27 08:30:43;;;;;;;5.35;2.60;;;;;;;15.27;65.62;101071.66;5043728;28;20403;-82
2021/10/27 08:33:19;;;;;;;6.30;3.10;;;;;;;15.26;65.48;101080.41;5044310;28;20060;-82
2021/10/27 08:35:49;;;;;;;4.60;2.45;;;;;;;15.25;65.82;101064.72;5047192;28;20401;-82
2021/10/27 08:38:16;;;;;;;6.35;2.30;;;;;;;15.30;65.29;101070.16;5050762;28;20049;-79
2021/10/27 08:40:44;;;;;;;6.20;2.45;;;;;;;15.30;64.94;101061.75;5046344;28;20069;-79
2021/10/27 08:43:12;;;;;;;4.47;2.60;;;;;;;15.26;65.35;101064.38;5038730;28;20064;-81
2021/10/27 08:45:41;;;;;;;5.28;2.60;;;;;;;15.34;65.21;101062.72;5040221;28;20362;-80
2021/10/27 08:48:09;;;;;;;5.60;3.28;;;;;;;15.35;65.04;101075.59;5046682;28;20056;-81
2021/10/27 08:50:38;;;;;;;5.80;2.47;;;;;;;15.32;64.94;101071.47;5049558;28;20049;-83
2021/10/27 08:53:07;;;;;;;6.03;3.20;;;;;;;15.47;64.62;101075.75;5049268;28;20068;-85
2021/10/27 08:55:35;;;;;;;5.38;2.35;;;;;;;15.41;64.61;101066.69;5045222;28;20048;-85
2021/10/27 08:58:03;;;;;;;4.05;2.10;;;;;;;15.37;64.76;101079.75;5049803;28;20049;-82
2021/10/27 09:00:35;;;;;;;5.25;2.40;;;;;;;15.50;64.65;101069.47;5048780;28;20049;-82
2021/10/27 09:03:22;;;;;;;3.53;2.08;;;;;;;15.56;63.93;101064.50;5048010;28;20053;-83
2021/10/27 09:05:55;;;;;;;5.30;2.60;;;;;;;15.48;64.01;101076.59;5047094;28;20053;-81
2021/10/27 09:33:33;;;;;;;6.25;2.60;;;;;;;15.87;63.11;101083.13;5046302;28;20072;-81
2021/10/27 09:34:27;;;;;;;5.07;2.38;;;;;;;16.17;61.96;101082.03;5056955;28;20358;-80
2021/10/27 10:05:09;;;;;;;5.13;2.88;;;;;;;17.00;58.79;101086.16;5055792;28;20059;-81
2021/10/27 10:07:38;;;;;;;3.90;1.90;;;;;;;17.03;59.13;101087.47;5051017;28;20044;-81
2021/10/27 10:10:07;;;;;;;5.10;2.05;;;;;;;17.11;58.05;101083.75;5036086;28;20052;-78
2021/10/27 10:12:37;;;;;;;4.38;2.08;;;;;;;17.11;58.45;101088.56;5038919;28;20053;-80
2021/10/27 10:15:07;;;;;;;;;;;;;;;17.20;58.25;101098.59;5044677;28;20512;-80
2021/10/27 10:17:37;;;;;;;4.38;2.47;;;;;;;16.75;59.04;101095.59;5053810;28;19925;-80
2021/10/27 10:20:06;;;;;;;6.00;2.40;;;;;;;16.68;59.61;101090.50;5041388;28;20061;-80
2021/10/27 10:22:36;;;;;;;4.10;1.90;;;;;;;16.77;59.42;101085.63;5053596;28;20049;-80
2021/10/27 10:25:31;;;;;;;3.20;2.05;;;;;;;16.85;59.23;101083.97;5050672;28;20132;-79
2021/10/27 10:28:15;;;;;;;4.85;2.35;;;;;;;16.97;58.48;101089.66;5051233;28;20083;-80
2021/10/27 10:30:53;;;;;;;7.47;2.58;;;;;;;16.92;58.86;101087.03;5052612;28;20052;-82
2021/10/27 10:33:24;;;;;;;4.78;2.85;;;;;;;16.81;59.07;101092.25;5053584;28;20064;-82
2021/10/27 10:35:59;;;;;;;4.57;2.55;;;;;;;16.73;59.33;101079.03;5048155;28;20410;-83
2021/10/27 10:38:38;;;;;;;3.75;2.03;;;;;;;16.80;59.20;101076.56;5041563;28;20049;-83
2021/10/27 10:59:21;;;;;;;;;;;;;;;16.85;58.87;101064.28;5043344;28;20072;-86
2021/10/27 11:02:08;;;;;;;4.20;2.38;;;;;;;16.90;58.86;101069.69;5055180;28;19921;-86
2021/10/27 11:22:46;;;;;;;4.45;2.13;;;;;;;17.09;59.04;101043.84;5048793;28;20064;-84
2021/10/27 11:25:20;;;;;;;4.85;2.00;;;;;;;17.37;58.17;101049.75;5045088;28;20044;-82
2021/10/27 11:42:35;;;;;;;3.85;2.00;;;;;;;19.05;53.23;101014.97;5037619;28;20045;-84
2021/10/27 11:45:14;;;;;;;3.90;2.08;;;;;;;20.22;49.75;101026.16;5050937;28;20055;-85
2021/10/27 11:47:43;;;;;;;3.20;1.60;;;;;;;20.83;48.19;101011.44;5054592;28;20410;-85
2021/10/27 11:50:13;;;;;;;4.50;1.77;;;;;;;21.94;45.84;101009.13;5054100;28;20059;-85
2021/10/27 11:52:42;;;;;;;3.35;1.65;;;;;;;22.15;45.00;101009.47;5055847;28;20049;-86
2021/10/27 11:55:14;;;;;;;3.83;2.08;;;;;;;22.53;43.34;101012.50;5042958;28;20056;-87
2021/10/27 11:57:44;;;;;;;3.42;1.90;;;;;;;22.93;42.68;100997.66;5054676;28;20044;-87
2021/10/27 12:00:24;;;;;;;3.75;2.00;;;;;;;23.27;41.13;100992.00;5054045;28;20048;-87
2021/10/27 12:02:56;;;;;;;4.13;2.10;;;;;;;23.01;42.04;100996.56;5054912;28;20053;-87
2021/10/27 12:05:25;;;;;;;2.97;1.80;;;;;;;23.37;40.75;100982.78;5054094;28;20053;-87
2021/10/27 12:11:02;;;;;;;4.85;2.10;;;;;;;23.19;42.23;100982.56;5031578;28;20048;-86
2021/10/27 12:13:54;;;;;;;3.75;1.70;;;;;;;24.19;39.58;100988.41;5054502;28;20063;-86
2021/10/27 12:19:19;;;;;;;4.50;1.55;;;;;;;23.94;39.22;100974.00;5052823;28;20049;-86
2021/10/27 12:21:50;;;;;;;4.10;2.08;;;;;;;23.50;39.81;100975.59;5050675;28;20049;-86
2021/10/27 12:24:18;;;;;;;3.92;1.70;;;;;;;23.87;39.87;100962.53;5054682;28;20508;-86
2021/10/27 12:26:50;;;;;;;3.38;1.40;;;;;;;24.10;38.65;100963.13;5053600;28;20049;-86
2021/10/27 12:29:26;;;;;;;3.22;1.40;;;;;;;23.90;39.10;100962.56;5053525;28;20064;-86
2021/10/27 12:32:09;;;;;;;3.80;1.40;;;;;;;23.51;40.61;100965.84;5046629;28;20045;-85
2021/10/27 12:34:45;;;;;;;3.25;1.65;;;;;;;23.13;41.21;100974.78;5036401;28;20060;-85
2021/10/27 12:37:37;;;;;;;3.85;1.50;;;;;;;23.66;40.08;100965.97;5043343;28;20048;-86
2021/10/27 12:40:14;;;;;;;3.55;1.48;;;;;;;23.98;39.60;100960.59;5050238;28;20057;-84
2021/10/27 12:42:43;;;;;;;2.25;1.25;;;;;;;24.23;39.27;100955.09;5050926;28;20052;-86
2021/10/27 12:45:11;;;;;;;3.85;1.52;;;;;;;24.11;39.03;100961.09;5045744;28;20056;-83
2021/10/27 12:47:40;;;;;;;5.70;1.38;;;;;;;24.40;38.57;100962.13;5053959;28;20052;-84
2021/10/27 12:50:12;;;;;;;3.97;1.60;;;;;;;24.76;38.35;100952.94;5042770;28;20079;-82
2021/10/27 12:52:44;;;;;;;4.07;1.60;;;;;;;24.68;38.55;100958.63;5034123;28;20058;-81
2021/10/27 12:55:19;;;;;;;3.72;1.60;;;;;;;24.19;38.75;100961.94;5045777;28;20486;-81
2021/10/27 12:58:05;;;;;;;6.15;1.70;;;;;;;24.23;38.64;100954.25;5051724;28;20060;-81
2021/10/27 13:00:52;;;;;;;4.13;1.50;;;;;;;24.31;38.58;100951.06;5052749;28;20048;-84
2021/10/27 13:31:00;;;;;;;3.95;1.42;;;;;;;22.55;41.57;100948.47;5056554;28;20055;-85
2021/10/27 13:33:29;;;;;;;4.38;1.70;;;;;;;22.61;42.03;100941.25;5049597;28;20089;-84
2021/10/27 13:35:56;;;;;;;3.80;1.38;;;;;;;22.77;41.66;100948.75;5053497;28;20049;-84
2021/10/27 13:38:27;;;;;;;4.68;1.58;;;;;;;22.65;41.82;100947.78;5052357;28;20044;-84
2021/10/27 13:40:57;;;;;;;3.85;1.35;;;;;;;22.36;41.94;100957.13;5051686;28;20048;-84
2021/10/27 13:43:27;;;;;;;5.38;1.35;;;;;;;22.31;42.77;100946.09;5053076;28;20406;-83
2021/10/27 13:46:18;;;;;;;3.20;0.95;;;;;;;22.32;41.61;100945.69;5047867;28;20053;-84
2021/10/27 13:49:05;;;;;;;3.33;1.38;;;;;;;21.90;42.89;100949.50;5053166;28;20482;-83
2021/10/27 14:08:06;;;;;;;5.32;2.08;;;;;;;21.91;42.99;100941.81;5057891;28;20064;-83
2021/10/27 14:10:41;;;;;;;3.60;1.42;;;;;;;21.37;44.12;100953.00;5046288;28;20052;-83
2021/10/27 14:13:20;;;;;;;3.72;1.60;;;;;;;21.32;44.36;100939.16;5055504;28;20053;-83
2021/10/27 14:18:52;;;;;;;6.13;2.08;;;;;;;20.57;46.34;100937.63;5020747;28;20474;-83
2021/10/27 14:40:55;;;;;;;4.93;1.70;;;;;;;19.57;49.27;100924.75;5062746;28;20056;-81
2021/10/27 15:19:45;;;;;;;3.22;2.05;;;;;;;18.45;52.03;100898.28;5043861;28;20055;-83
2021/10/27 15:22:17;;;;;;;6.55;2.22;;;;;;;18.22;52.75;100898.00;5056866;28;20060;-83
2021/10/27 15:25:21;;;;;;;4.47;2.20;;;;;;;18.04;53.64;100894.63;5054340;28;20052;-83